Airfield :
LOGIN :

Register | Disclaimer

   EN    FR    IT 

 










Legend :    VFR   Marginal VFR   IFR   Intensive IFR   Very Intensive IFR
Visi :
Ceiling :
>= 8 km
>= 3000ft
5 to 8 km
1000 to 3000 ft
1500m to 5 km
500 to 1000 ft
800 to 1500m
200 to 500 ft
< 800m
< 200 ft
Symbols :   Thunderstorms  Fog  Heavy snow  Heavy precipitations  Wind > 20 kt
SIGMETs :     Misc.  Thunderstorms  Icing  Turbulence  Mountain Waves  Volcanic Ashes






- Airport Elevation : 13 ft
- IATA code : OST


EBOS - Oostend bruges Int.

CURRENT METAR :
  • 211650Z 19013KT 9999 -RA BKN032 06/04 Q0988 TEMPO 4000 RA BKN012

EXPIRED METARs :
  • 211620Z 20016KT 9999 -RA SCT030 BKN035 07/03 Q0989 NOSIG
  • 211550Z 19011KT 9999 -RA FEW028 SCT035 07/04 Q0989 NOSIG
  • 211520Z 20014KT 9999 FEW030 SCT035 07/04 Q0989 NOSIG
  • 211450Z 20016KT 9999 FEW030 SCT035 07/03 Q0990 NOSIG
  • 211420Z 20017KT 9999 FEW020 BKN035 07/04 Q0990 NOSIG
  • 211350Z 20018KT 9999 SCT020 SCT040 07/04 Q0990 RESHRA NOSIG

TAF TAF EBOS
Valid from the 21 at 12:00 until the 22 at 18:00 UTC


211102Z 2112/2218 21016KT 9999 FEW020TCU
PROB40
TEMPO 2112/2115 22020G30KT SHRA
TEMPO 2117/2123 4000 RA SCT008 BKN012
BECMG 2118/2120 34005KT
BECMG 2122/2124 25008KT



MET'MAP, your aeronautical weather chart ! - Copyright ORBIFLY December 2007 - Disclaimer

ORBIFLY MET'MAP TEAM :

Programming & Development : Alexandra Zaïnal
Concept & original design : Baudouin d'Aumeries
Assistance for programming : Marc-Olivier Méhu
Technical & hardware support : Manuel Goepfert

Contact : metmap@orbifly.com




SOURCES & CREDITS :

   NOAA